createdAt,value
2017-05-09T00:00:34.777Z,2.80
2017-05-09T00:03:03.820Z,3.10
2017-05-09T00:05:32.849Z,3.47
2017-05-09T00:08:01.905Z,3.83
2017-05-09T00:10:31.448Z,4.03
2017-05-09T00:13:00.501Z,3.37
2017-05-09T00:15:29.518Z,3.15
2017-05-09T00:17:58.560Z,2.73
2017-05-09T00:20:28.582Z,2.83
2017-05-09T00:22:57.621Z,3.08
2017-05-09T00:25:26.649Z,2.90
2017-05-09T00:27:55.713Z,3.05
2017-05-09T00:30:24.737Z,3.70
2017-05-09T00:32:53.765Z,2.68
2017-05-09T00:35:23.544Z,3.98
2017-05-09T00:37:52.585Z,3.00
2017-05-09T00:40:21.630Z,3.02
2017-05-09T00:42:51.188Z,3.20
2017-05-09T00:45:20.351Z,3.03
2017-05-09T00:47:49.356Z,3.60
2017-05-09T00:50:18.412Z,3.80
2017-05-09T00:52:47.432Z,3.02
2017-05-09T00:55:17.226Z,3.57
2017-05-09T00:57:46.348Z,3.60
2017-05-09T01:00:16.100Z,3.57
2017-05-09T01:02:45.200Z,3.52
2017-05-09T01:05:14.206Z,3.13
2017-05-09T01:07:43.267Z,3.30
2017-05-09T01:10:12.273Z,3.80
2017-05-09T01:12:41.339Z,3.53
2017-05-09T01:15:10.402Z,3.75
2017-05-09T01:17:39.497Z,3.67
2017-05-09T01:20:08.548Z,3.38
2017-05-09T01:22:37.573Z,3.40
2017-05-09T01:25:06.623Z,3.57
2017-05-09T01:27:35.638Z,4.52
2017-05-09T01:30:04.682Z,3.55
2017-05-09T01:32:34.457Z,4.15
2017-05-09T01:35:03.501Z,3.42
2017-05-09T01:37:32.526Z,3.30
2017-05-09T01:40:01.595Z,3.65
2017-05-09T01:42:30.609Z,3.35
2017-05-09T01:44:59.741Z,3.12
2017-05-09T01:47:28.802Z,3.57
2017-05-09T01:49:57.850Z,3.72
2017-05-09T01:52:27.642Z,3.60
2017-05-09T01:54:56.757Z,3.27
2017-05-09T01:57:25.790Z,3.62
2017-05-09T01:59:54.816Z,3.87
2017-05-09T02:02:23.853Z,3.52
2017-05-09T02:04:52.879Z,4.00
2017-05-09T02:07:22.010Z,3.10
2017-05-09T02:09:51.106Z,3.60
2017-05-09T02:12:20.129Z,3.42
2017-05-09T02:14:49.174Z,3.48
2017-05-09T02:17:18.203Z,3.02
2017-05-09T02:19:47.986Z,3.22
2017-05-09T02:22:17.012Z,3.55
2017-05-09T02:24:46.899Z,3.68
2017-05-09T02:27:15.917Z,3.73
2017-05-09T02:29:45.726Z,3.62
2017-05-09T02:32:15.522Z,4.15
2017-05-09T02:34:44.541Z,3.50
2017-05-09T02:37:13.623Z,3.20
2017-05-09T02:39:43.418Z,3.62
2017-05-09T02:42:12.514Z,3.98
2017-05-09T02:44:41.537Z,3.30
2017-05-09T02:47:10.598Z,3.23
2017-05-09T02:49:39.614Z,3.47
2017-05-09T02:52:09.401Z,3.43
2017-05-09T02:54:38.501Z,3.60
2017-05-09T02:57:07.597Z,3.52
2017-05-09T02:59:36.635Z,3.48
2017-05-09T03:02:05.672Z,3.60
2017-05-09T03:04:34.713Z,3.70
2017-05-09T03:07:03.736Z,4.20
2017-05-09T03:09:32.863Z,4.07
2017-05-09T03:12:01.889Z,3.85
2017-05-09T03:14:30.972Z,3.78
2017-05-09T03:16:59.980Z,3.43
2017-05-09T03:19:29.036Z,3.63
2017-05-09T03:21:58.094Z,3.82
2017-05-09T03:24:27.115Z,3.93
2017-05-09T03:26:56.160Z,4.07
2017-05-09T03:29:25.179Z,4.67
2017-05-09T03:31:54.333Z,3.90
2017-05-09T03:34:24.085Z,5.85
2017-05-09T03:36:53.121Z,3.98
2017-05-09T03:39:22.889Z,4.62
2017-05-09T03:41:51.942Z,3.47
2017-05-09T03:44:21.694Z,4.20
2017-05-09T03:46:50.745Z,4.20
2017-05-09T03:49:20.514Z,3.90
2017-05-09T03:51:49.547Z,4.98
2017-05-09T03:54:19.342Z,4.88
2017-05-09T03:56:48.355Z,4.22
2017-05-09T03:59:18.138Z,4.28
2017-05-09T04:01:47.237Z,4.92
2017-05-09T04:04:16.295Z,4.27
2017-05-09T04:06:45.305Z,5.98
2017-05-09T04:09:14.347Z,4.50
2017-05-09T04:11:43.374Z,4.90
2017-05-09T04:14:12.420Z,4.90
2017-05-09T04:16:41.444Z,5.43
2017-05-09T04:19:10.481Z,5.78
2017-05-09T04:21:39.511Z,5.42
2017-05-09T04:24:09.274Z,5.15
2017-05-09T04:26:38.325Z,6.13
2017-05-09T04:29:07.391Z,5.40
2017-05-09T04:31:36.413Z,5.58
2017-05-09T04:34:05.461Z,6.42
2017-05-09T04:36:34.530Z,6.60
2017-05-09T04:39:03.570Z,7.20
2017-05-09T04:41:32.618Z,5.73
2017-05-09T04:44:01.634Z,6.40
2017-05-09T04:46:30.747Z,6.93
2017-05-09T04:48:59.772Z,5.87
2017-05-09T04:51:29.600Z,5.63
2017-05-09T04:53:58.633Z,5.57
2017-05-09T04:56:27.682Z,6.20
2017-05-09T04:58:56.754Z,7.23
2017-05-09T05:01:26.527Z,6.70
2017-05-09T05:03:55.575Z,6.23
2017-05-09T05:06:24.645Z,6.43
2017-05-09T05:08:53.750Z,10.23
2017-05-09T05:11:23.540Z,5.23
2017-05-09T05:13:52.653Z,5.88
2017-05-09T05:16:21.658Z,6.53
2017-05-09T05:18:50.710Z,6.48
2017-05-09T05:21:19.726Z,5.52
2017-05-09T05:23:49.511Z,7.25
2017-05-09T05:26:18.554Z,6.07
2017-05-09T05:28:47.580Z,6.05
2017-05-09T05:31:16.637Z,7.32
2017-05-09T05:33:46.402Z,6.08
2017-05-09T05:36:15.433Z,5.45
2017-05-09T05:38:45.229Z,6.42
2017-05-09T05:41:14.271Z,5.73
2017-05-09T05:43:43.300Z,7.32
2017-05-09T05:46:12.360Z,6.55
2017-05-09T05:48:41.521Z,6.10
2017-05-09T05:51:10.683Z,6.12
2017-05-09T05:53:39.729Z,6.77
2017-05-09T05:56:08.791Z,6.57
2017-05-09T05:58:37.835Z,6.63
2017-05-09T06:01:06.851Z,6.13
2017-05-09T06:03:35.988Z,5.77
2017-05-09T06:06:04.998Z,6.55
2017-05-09T06:08:34.068Z,6.08
2017-05-09T06:11:03.086Z,6.30
2017-05-09T06:13:32.125Z,6.10
2017-05-09T06:16:01.193Z,6.35
2017-05-09T06:18:30.226Z,8.72
2017-05-09T06:20:59.291Z,6.88
2017-05-09T06:23:28.319Z,6.28
2017-05-09T06:26:04.563Z,6.60
2017-05-09T06:28:33.577Z,4.60
2017-05-09T06:31:02.739Z,5.12
2017-05-09T06:33:31.787Z,5.27
2017-05-09T06:36:01.578Z,4.92
2017-05-09T06:38:30.597Z,5.22
2017-05-09T06:41:00.406Z,4.48
2017-05-09T06:43:29.505Z,4.67
2017-05-09T06:45:58.586Z,5.05
2017-05-09T06:48:27.862Z,5.30
2017-05-09T06:50:57.667Z,4.50
2017-05-09T06:53:26.710Z,3.42
2017-05-09T06:55:55.728Z,3.92
2017-05-09T06:58:24.776Z,3.00
2017-05-09T07:00:54.549Z,4.60
2017-05-09T07:03:23.613Z,3.65
2017-05-09T07:05:52.647Z,4.28
2017-05-09T07:08:21.693Z,3.52
2017-05-09T07:10:50.769Z,6.42
2017-05-09T07:13:20.540Z,2.92
2017-05-09T07:15:49.581Z,4.33
2017-05-09T07:18:18.635Z,4.60
2017-05-09T07:20:47.707Z,3.87
2017-05-09T07:23:16.737Z,4.47
2017-05-09T07:25:45.806Z,4.03
2017-05-09T07:28:14.830Z,3.90
2017-05-09T07:30:44.625Z,4.03
2017-05-09T07:33:13.657Z,4.33
2017-05-09T07:35:42.705Z,4.78
2017-05-09T07:38:11.768Z,4.33
2017-05-09T07:40:40.958Z,3.93
2017-05-09T07:43:09.992Z,3.02
2017-05-09T07:45:39.020Z,3.97
2017-05-09T07:48:08.819Z,3.45
2017-05-09T07:50:38.614Z,4.93
2017-05-09T07:53:07.669Z,4.03
2017-05-09T07:55:36.716Z,4.00
2017-05-09T07:58:05.768Z,3.92
2017-05-09T08:00:34.827Z,5.20
2017-05-09T08:03:03.889Z,5.23
2017-05-09T08:05:32.951Z,7.66
2017-05-09T08:08:01.977Z,4.90
2017-05-09T08:10:31.883Z,4.80
2017-05-09T08:13:00.924Z,6.24
2017-05-09T08:15:30.579Z,5.28
2017-05-09T08:17:59.611Z,5.44
2017-05-09T08:20:29.725Z,5.86
2017-05-09T08:22:58.779Z,5.50
2017-05-09T08:25:27.923Z,5.20
2017-05-09T08:27:56.946Z,5.18
2017-05-09T08:30:26.020Z,4.14
2017-05-09T08:32:55.774Z,4.54
2017-05-09T08:35:24.854Z,4.50
2017-05-09T08:37:53.877Z,4.80
2017-05-09T08:40:22.945Z,4.58
2017-05-09T08:42:52.090Z,4.78
2017-05-09T08:45:21.121Z,4.00
2017-05-09T08:47:50.171Z,4.62
2017-05-09T08:50:19.204Z,3.84
2017-05-09T08:52:48.248Z,4.02
2017-05-09T08:55:17.278Z,5.32
2017-05-09T08:57:46.329Z,5.70
2017-05-09T09:00:16.278Z,4.96
2017-05-09T09:02:46.088Z,5.68
2017-05-09T09:05:15.109Z,7.40
2017-05-09T09:07:44.261Z,6.24
2017-05-09T09:10:13.308Z,7.54
2017-05-09T09:12:42.372Z,6.16
2017-05-09T09:15:12.167Z,6.86
2017-05-09T09:17:41.271Z,5.82
2017-05-09T09:20:10.298Z,6.38
2017-05-09T09:22:39.333Z,6.46
2017-05-09T09:25:08.388Z,7.02
2017-05-09T09:27:37.416Z,5.52
2017-05-09T09:30:06.530Z,6.12
2017-05-09T09:32:35.600Z,6.40
2017-05-09T09:35:04.621Z,6.80
2017-05-09T09:37:34.423Z,7.78
2017-05-09T09:40:03.635Z,8.02
2017-05-09T09:42:33.432Z,7.70
2017-05-09T09:45:02.501Z,7.84
2017-05-09T09:47:31.553Z,7.90
2017-05-09T09:50:00.584Z,8.66
2017-05-09T09:52:29.738Z,8.06
2017-05-09T09:54:58.757Z,7.78
2017-05-09T09:57:27.799Z,7.90
2017-05-09T09:59:56.835Z,7.42
2017-05-09T10:02:25.905Z,8.06
2017-05-09T10:04:55.693Z,7.00
2017-05-09T10:07:24.719Z,6.98
2017-05-09T10:09:54.515Z,7.30
2017-05-09T10:12:23.550Z,7.52
2017-05-09T10:14:52.587Z,7.28
2017-05-09T10:17:21.615Z,5.72
2017-05-09T10:19:50.672Z,6.30
2017-05-09T10:22:19.731Z,7.20
2017-05-09T10:24:48.896Z,5.38
2017-05-09T10:27:18.653Z,6.66
2017-05-09T10:29:47.725Z,6.42
2017-05-09T10:32:16.764Z,6.88
2017-05-09T10:34:45.801Z,6.34
2017-05-09T10:37:14.835Z,7.02
2017-05-09T10:39:43.893Z,5.76
2017-05-09T10:42:12.925Z,7.02
2017-05-09T10:44:41.982Z,6.64
2017-05-09T10:47:10.994Z,7.34
2017-05-09T10:49:40.034Z,7.20
2017-05-09T10:52:09.081Z,7.38
2017-05-09T10:54:38.122Z,5.90
2017-05-09T10:57:07.153Z,5.62
2017-05-09T10:59:36.209Z,5.52
2017-05-09T11:02:05.273Z,4.52
2017-05-09T11:04:34.329Z,4.80
2017-05-09T11:07:03.401Z,6.16
2017-05-09T11:09:32.446Z,5.80
2017-05-09T11:12:01.464Z,5.80
2017-05-09T11:14:30.529Z,5.56
2017-05-09T11:16:59.579Z,5.34
2017-05-09T11:19:29.367Z,5.68
2017-05-09T11:21:58.429Z,6.06
2017-05-09T11:24:27.479Z,5.82
2017-05-09T11:26:57.253Z,4.46
2017-05-09T11:29:26.324Z,7.80
2017-05-09T11:31:55.482Z,4.58
2017-05-09T11:34:24.533Z,4.92
2017-05-09T11:36:53.588Z,5.98
2017-05-09T11:39:23.399Z,6.32
2017-05-09T11:41:52.454Z,4.94
2017-05-09T11:44:21.525Z,5.76
2017-05-09T11:46:50.553Z,5.90
2017-05-09T11:49:19.649Z,5.76
2017-05-09T11:51:49.414Z,5.22
2017-05-09T11:54:18.466Z,4.94
2017-05-09T11:56:48.242Z,3.52
2017-05-09T11:59:17.412Z,4.24
2017-05-09T12:01:46.575Z,4.28
2017-05-09T12:04:16.366Z,4.38
2017-05-09T12:06:45.389Z,4.18
2017-05-09T12:09:14.449Z,4.12
2017-05-09T12:11:43.478Z,5.32
2017-05-09T12:14:12.509Z,4.12
2017-05-09T12:16:41.558Z,4.72
2017-05-09T12:19:10.589Z,3.98
2017-05-09T12:21:39.638Z,4.92
2017-05-09T12:24:09.413Z,4.02
2017-05-09T12:26:38.479Z,5.00
2017-05-09T12:29:07.506Z,4.88
2017-05-09T12:31:36.557Z,4.52
2017-05-09T12:34:05.603Z,3.78
2017-05-09T12:36:34.730Z,4.84
2017-05-09T12:39:03.771Z,5.12
2017-05-09T12:41:32.888Z,4.88
2017-05-09T12:44:01.923Z,5.00
2017-05-09T12:46:31.183Z,6.82
2017-05-09T12:49:00.229Z,5.88
2017-05-09T12:51:29.258Z,6.30
2017-05-09T12:53:58.334Z,6.10
2017-05-09T12:56:27.354Z,6.28
2017-05-09T12:58:56.420Z,4.72
2017-05-09T13:01:25.464Z,4.62
2017-05-09T13:03:54.500Z,4.42
2017-05-09T13:06:23.537Z,3.96
2017-05-09T13:08:53.334Z,4.14
2017-05-09T13:11:22.354Z,5.12
2017-05-09T13:13:52.150Z,4.02
2017-05-09T13:16:21.191Z,5.14
2017-05-09T13:18:50.229Z,3.44
2017-05-09T13:21:19.502Z,4.14
2017-05-09T13:23:48.559Z,4.06
2017-05-09T13:26:17.587Z,3.92
2017-05-09T13:28:46.638Z,4.40
2017-05-09T13:31:16.404Z,5.04
2017-05-09T13:33:45.478Z,4.08
2017-05-09T13:36:14.495Z,5.12
2017-05-09T13:38:43.533Z,4.00
2017-05-09T13:41:11.814Z,4.32
2017-05-09T13:43:41.594Z,4.38
2017-05-09T13:46:10.621Z,4.98
2017-05-09T13:48:39.668Z,4.94
2017-05-09T13:51:08.701Z,3.92
2017-05-09T13:53:37.763Z,4.84
2017-05-09T13:56:06.808Z,4.16
2017-05-09T13:58:35.853Z,4.80
2017-05-09T14:01:04.985Z,5.34
2017-05-09T14:03:34.033Z,4.46
2017-05-09T14:06:03.057Z,4.22
2017-05-09T14:08:32.855Z,4.00
2017-05-09T14:11:01.884Z,4.94
2017-05-09T14:13:31.058Z,4.90
2017-05-09T14:16:00.073Z,6.90
2017-05-09T14:18:29.147Z,4.76
2017-05-09T14:20:58.914Z,5.28
2017-05-09T14:23:28.045Z,5.24
2017-05-09T14:25:57.109Z,5.00
2017-05-09T14:28:26.259Z,5.22
2017-05-09T14:30:56.011Z,5.22
2017-05-09T14:33:25.069Z,4.80
2017-05-09T14:35:54.108Z,4.70
2017-05-09T14:38:23.152Z,5.82
2017-05-09T14:40:52.230Z,5.36
2017-05-09T14:43:21.258Z,5.38
2017-05-09T14:45:50.342Z,4.62
2017-05-09T14:48:19.375Z,5.22
2017-05-09T14:50:48.438Z,5.58
2017-05-09T14:53:17.466Z,5.22
2017-05-09T14:55:46.526Z,5.64
2017-05-09T14:58:15.555Z,5.50
2017-05-09T15:00:44.623Z,5.62
2017-05-09T15:03:13.662Z,5.06
2017-05-09T15:05:42.919Z,5.52
2017-05-09T15:08:12.182Z,6.16
2017-05-09T15:10:41.505Z,6.60
2017-05-09T15:13:11.350Z,5.44
2017-05-09T15:15:40.398Z,5.98
2017-05-09T15:18:09.421Z,5.74
2017-05-09T15:20:38.468Z,4.56
2017-05-09T15:23:08.281Z,4.72
2017-05-09T15:25:38.053Z,5.36
2017-05-09T15:28:07.114Z,5.06
2017-05-09T15:30:36.181Z,5.94
2017-05-09T15:33:05.953Z,4.86
2017-05-09T15:35:55.586Z,4.62
2017-05-09T15:38:25.334Z,4.46
2017-05-09T15:40:54.399Z,5.30
2017-05-09T15:43:23.410Z,4.66
2017-05-09T15:45:52.459Z,4.68
2017-05-09T15:48:22.229Z,4.88
2017-05-09T15:50:51.285Z,4.46
2017-05-09T15:53:20.318Z,5.20
2017-05-09T15:55:49.374Z,5.26
2017-05-09T15:58:18.385Z,5.42
2017-05-09T16:00:47.430Z,4.10
2017-05-09T16:03:17.226Z,4.52
2017-05-09T16:05:46.301Z,4.86
2017-05-09T16:08:15.334Z,4.66
2017-05-09T16:10:45.190Z,4.56
2017-05-09T16:13:14.349Z,5.30
2017-05-09T16:15:43.427Z,5.28
2017-05-09T16:18:12.536Z,5.50
2017-05-09T16:20:42.432Z,5.58
2017-05-09T16:23:11.449Z,5.50
2017-05-09T16:25:49.600Z,5.90
2017-05-09T16:28:19.037Z,5.48
2017-05-09T16:30:48.097Z,5.54
2017-05-09T16:33:17.146Z,22.22
2017-05-09T16:35:47.348Z,5.00
2017-05-09T16:38:16.361Z,5.28
2017-05-09T16:40:46.153Z,5.64
2017-05-09T16:43:15.250Z,5.64
2017-05-09T16:45:44.281Z,5.12
2017-05-09T16:51:09.582Z,5.08
2017-05-09T16:53:38.589Z,5.42
2017-05-09T16:56:07.637Z,4.64
2017-05-09T16:58:36.716Z,5.28
2017-05-09T17:01:05.785Z,4.96
2017-05-09T17:03:34.923Z,4.58
2017-05-09T17:06:03.984Z,4.76
2017-05-09T17:08:33.010Z,4.72
2017-05-09T17:11:02.164Z,4.84
2017-05-09T17:13:31.178Z,4.28
2017-05-09T17:16:00.251Z,4.66
2017-05-09T17:18:30.337Z,4.80
2017-05-09T17:20:59.373Z,5.16
2017-05-09T17:23:28.499Z,4.90
2017-05-09T17:25:57.523Z,5.94
2017-05-09T17:28:26.572Z,4.78
2017-05-09T17:30:55.693Z,4.92
2017-05-09T17:33:24.760Z,6.42
2017-05-09T17:35:53.837Z,5.46
2017-05-09T17:38:23.790Z,5.32
2017-05-09T17:40:53.847Z,4.84
2017-05-09T17:43:23.639Z,5.82
2017-05-09T17:45:52.663Z,4.80
2017-05-09T17:48:21.718Z,5.06
2017-05-09T17:50:51.521Z,5.96
2017-05-09T17:53:20.597Z,5.16
2017-05-09T17:55:49.634Z,4.92
2017-05-09T17:58:19.538Z,4.92
2017-05-09T18:00:48.575Z,5.48
2017-05-09T18:03:17.744Z,5.78
2017-05-09T18:05:47.596Z,5.14
2017-05-09T18:08:16.755Z,7.04
2017-05-09T18:10:46.521Z,4.98
2017-05-09T18:13:15.574Z,5.46
2017-05-09T18:15:44.602Z,4.60
2017-05-09T18:18:13.646Z,4.98
2017-05-09T18:20:42.697Z,4.84
2017-05-09T18:23:11.745Z,4.88
2017-05-09T18:25:40.778Z,4.98
2017-05-09T18:28:09.913Z,4.50
2017-05-09T18:30:39.735Z,4.88
2017-05-09T18:33:08.763Z,4.86
2017-05-09T18:35:37.789Z,5.12
2017-05-09T18:38:06.842Z,5.04
2017-05-09T18:40:35.878Z,4.20
2017-05-09T18:43:04.934Z,4.94
2017-05-09T18:45:33.970Z,5.50
2017-05-09T18:48:03.016Z,5.02
2017-05-09T18:50:32.065Z,4.28
2017-05-09T18:53:01.109Z,4.90
2017-05-09T18:55:30.172Z,5.16
2017-05-09T18:57:59.207Z,4.76
2017-05-09T19:00:28.261Z,4.88
2017-05-09T19:02:58.046Z,4.92
2017-05-09T19:05:27.154Z,4.68
2017-05-09T19:07:56.289Z,4.70
2017-05-09T19:10:25.392Z,4.82
2017-05-09T19:12:54.461Z,5.84
2017-05-09T19:15:23.601Z,4.90
2017-05-09T19:17:52.719Z,5.38
2017-05-09T19:20:21.869Z,5.57
2017-05-09T19:22:50.897Z,5.12
2017-05-09T19:25:20.030Z,4.70
2017-05-09T19:27:49.074Z,5.32
2017-05-09T19:30:18.173Z,4.87
2017-05-09T19:32:47.268Z,5.80
2017-05-09T19:35:16.392Z,5.37
2017-05-09T19:37:45.451Z,5.30
2017-05-09T19:40:14.534Z,5.05
2017-05-09T19:42:43.595Z,5.65
2017-05-09T19:45:12.681Z,5.80
2017-05-09T19:47:42.472Z,4.95
2017-05-09T19:50:11.543Z,5.80
2017-05-09T19:52:40.585Z,4.87
2017-05-09T19:55:10.383Z,5.83
2017-05-09T19:57:39.420Z,5.55
2017-05-09T20:00:08.481Z,5.20
2017-05-09T20:02:38.270Z,5.40
2017-05-09T20:05:07.340Z,4.93
2017-05-09T20:07:36.380Z,4.98
2017-05-09T20:10:06.185Z,5.45
2017-05-09T20:12:35.219Z,5.50
2017-05-09T20:15:04.274Z,5.83
2017-05-09T20:17:33.315Z,5.17
2017-05-09T20:20:02.362Z,4.90
2017-05-09T20:22:32.135Z,5.72
2017-05-09T20:25:01.182Z,6.03
2017-05-09T20:27:30.218Z,5.95
2017-05-09T20:29:59.269Z,5.95
2017-05-09T20:32:28.311Z,6.13
2017-05-09T20:34:57.361Z,9.03
2017-05-09T20:37:27.530Z,6.60
2017-05-09T20:39:57.460Z,6.57
2017-05-09T20:42:26.498Z,6.62
2017-05-09T20:44:55.581Z,6.70
2017-05-09T20:47:25.398Z,6.48
2017-05-09T20:49:55.304Z,6.48
2017-05-09T20:52:24.353Z,5.85
2017-05-09T20:54:53.402Z,5.50
2017-05-09T20:57:22.795Z,5.53
2017-05-09T20:59:51.822Z,5.83
2017-05-09T21:02:20.863Z,6.13
2017-05-09T21:04:50.705Z,6.02
2017-05-09T21:07:19.749Z,6.67
2017-05-09T21:09:48.846Z,5.73
2017-05-09T21:12:17.869Z,5.50
2017-05-09T21:14:47.669Z,5.60
2017-05-09T21:17:16.695Z,6.12
2017-05-09T21:19:45.772Z,5.72
2017-05-09T21:22:15.637Z,5.83
2017-05-09T21:24:44.772Z,6.58
2017-05-09T21:27:14.012Z,5.83
2017-05-09T21:29:43.608Z,5.97
2017-05-09T21:32:12.649Z,6.18
2017-05-09T21:34:41.769Z,6.23
2017-05-09T21:37:10.959Z,5.68
2017-05-09T21:39:40.017Z,6.20
2017-05-09T21:42:09.147Z,5.80
2017-05-09T21:44:38.189Z,6.60
2017-05-09T21:47:07.263Z,6.78
2017-05-09T21:49:36.301Z,6.12
2017-05-09T21:52:05.341Z,6.42
2017-05-09T21:54:35.122Z,6.08
2017-05-09T21:57:04.230Z,6.63
2017-05-09T21:59:33.249Z,6.50
2017-05-09T22:02:03.026Z,7.37
2017-05-09T22:04:32.049Z,6.32
2017-05-09T22:07:01.843Z,6.73
2017-05-09T22:09:30.894Z,6.65
2017-05-09T22:11:59.941Z,6.98
2017-05-09T22:14:29.710Z,6.77
2017-05-09T22:16:58.755Z,7.62
2017-05-09T22:19:28.541Z,6.90
2017-05-09T22:21:57.577Z,7.43
2017-05-09T22:24:26.619Z,6.87
2017-05-09T22:26:55.689Z,6.20
2017-05-09T22:29:24.732Z,6.98
2017-05-09T22:31:54.536Z,6.40
2017-05-09T22:34:23.559Z,6.40
2017-05-09T22:36:52.614Z,6.20
2017-05-09T22:39:21.655Z,6.00
2017-05-09T22:41:50.693Z,6.92
2017-05-09T22:44:19.771Z,6.15
2017-05-09T22:46:48.826Z,6.77
2017-05-09T22:49:18.593Z,7.02
2017-05-09T22:51:47.650Z,6.10
2017-05-09T22:54:16.689Z,6.67
2017-05-09T22:56:46.007Z,6.60
2017-05-09T22:59:15.066Z,7.17
2017-05-09T23:01:44.102Z,6.38
2017-05-09T23:04:13.877Z,5.93
2017-05-09T23:06:43.058Z,6.92
2017-05-09T23:09:12.165Z,7.35
2017-05-09T23:11:41.582Z,6.45
2017-05-09T23:14:10.701Z,7.02
2017-05-09T23:16:39.796Z,7.87
2017-05-09T23:19:09.577Z,7.65
2017-05-09T23:21:38.619Z,6.00
2017-05-09T23:24:07.667Z,6.72
2017-05-09T23:26:36.691Z,7.82
2017-05-09T23:29:06.474Z,7.28
2017-05-09T23:31:35.512Z,8.03
2017-05-09T23:34:04.564Z,8.52
2017-05-09T23:36:33.586Z,7.47
2017-05-09T23:39:03.367Z,7.30
2017-05-09T23:41:32.406Z,8.08
2017-05-09T23:44:02.184Z,7.98
2017-05-09T23:46:31.205Z,7.70
2017-05-09T23:49:00.252Z,7.75
2017-05-09T23:51:29.282Z,8.80
2017-05-09T23:53:59.066Z,8.20
2017-05-09T23:56:28.106Z,7.73
2017-05-09T23:58:57.150Z,7.43
